sensor_id;sensor_type;location;lat;lon;timestamp;temperature;humidity
31133;DHT22;17779;50.942;4.026;2023-08-06T00:00:39;15.60;99.90
31133;DHT22;17779;50.942;4.026;2023-08-06T00:03:05;15.70;99.90
31133;DHT22;17779;50.942;4.026;2023-08-06T00:05:31;15.80;99.90
31133;DHT22;17779;50.942;4.026;2023-08-06T00:07:57;15.80;99.90
31133;DHT22;17779;50.942;4.026;2023-08-06T00:10:22;16.00;99.90
31133;DHT22;17779;50.942;4.026;2023-08-06T00:12:48;16.00;99.90
31133;DHT22;17779;50.942;4.026;2023-08-06T00:15:14;16.10;99.90
31133;DHT22;17779;50.942;4.026;2023-08-06T00:17:40;16.00;99.90
31133;DHT22;17779;50.942;4.026;2023-08-06T00:20:06;16.10;99.90
31133;DHT22;17779;50.942;4.026;2023-08-06T00:22:32;16.10;99.90
31133;DHT22;17779;50.942;4.026;2023-08-06T00:24:57;16.00;99.90
31133;DHT22;17779;50.942;4.026;2023-08-06T00:27:23;15.90;99.90
31133;DHT22;17779;50.942;4.026;2023-08-06T00:29:49;16.00;99.90
31133;DHT22;17779;50.942;4.026;2023-08-06T00:32:15;16.10;99.90
31133;DHT22;17779;50.942;4.026;2023-08-06T00:34:40;16.10;99.90
31133;DHT22;17779;50.942;4.026;2023-08-06T00:37:06;16.10;99.90
31133;DHT22;17779;50.942;4.026;2023-08-06T00:39:32;16.00;99.90
31133;DHT22;17779;50.942;4.026;2023-08-06T00:41:57;15.90;99.90
31133;DHT22;17779;50.942;4.026;2023-08-06T00:44:23;15.90;99.90
31133;DHT22;17779;50.942;4.026;2023-08-06T00:46:49;15.80;99.90
31133;DHT22;17779;50.942;4.026;2023-08-06T00:49:15;15.80;99.90
31133;DHT22;17779;50.942;4.026;2023-08-06T00:51:41;15.80;99.90
31133;DHT22;17779;50.942;4.026;2023-08-06T00:54:08;15.80;99.90
31133;DHT22;17779;50.942;4.026;2023-08-06T00:56:34;15.80;99.90
31133;DHT22;17779;50.942;4.026;2023-08-06T00:59:01;15.90;99.90
31133;DHT22;17779;50.942;4.026;2023-08-06T01:01:27;16.00;99.90
31133;DHT22;17779;50.942;4.026;2023-08-06T01:03:53;16.00;99.90
31133;DHT22;17779;50.942;4.026;2023-08-06T01:06:19;16.00;99.90
31133;DHT22;17779;50.942;4.026;2023-08-06T01:08:54;16.10;99.90
31133;DHT22;17779;50.942;4.026;2023-08-06T01:13:47;16.10;99.90
31133;DHT22;17779;50.942;4.026;2023-08-06T01:16:15;16.00;99.90
31133;DHT22;17779;50.942;4.026;2023-08-06T01:18:42;16.10;99.90
31133;DHT22;17779;50.942;4.026;2023-08-06T01:21:12;16.10;99.90
31133;DHT22;17779;50.942;4.026;2023-08-06T01:23:38;16.10;99.90
31133;DHT22;17779;50.942;4.026;2023-08-06T01:28:50;16.10;99.90
31133;DHT22;17779;50.942;4.026;2023-08-06T01:31:18;16.10;99.90
31133;DHT22;17779;50.942;4.026;2023-08-06T01:33:47;16.00;99.90
31133;DHT22;17779;50.942;4.026;2023-08-06T01:36:15;16.10;99.90
31133;DHT22;17779;50.942;4.026;2023-08-06T01:38:41;16.10;99.90
31133;DHT22;17779;50.942;4.026;2023-08-06T01:41:06;16.10;99.90
31133;DHT22;17779;50.942;4.026;2023-08-06T01:43:32;16.00;99.90
31133;DHT22;17779;50.942;4.026;2023-08-06T01:45:57;16.10;99.90
31133;DHT22;17779;50.942;4.026;2023-08-06T01:48:23;16.00;99.90
31133;DHT22;17779;50.942;4.026;2023-08-06T01:50:49;15.90;99.90
31133;DHT22;17779;50.942;4.026;2023-08-06T01:53:14;15.80;99.90
31133;DHT22;17779;50.942;4.026;2023-08-06T01:55:40;16.00;99.90
31133;DHT22;17779;50.942;4.026;2023-08-06T01:58:05;15.90;99.90
31133;DHT22;17779;50.942;4.026;2023-08-06T02:00:31;15.90;99.90
31133;DHT22;17779;50.942;4.026;2023-08-06T02:02:57;16.00;99.90
31133;DHT22;17779;50.942;4.026;2023-08-06T02:05:22;15.90;99.90
31133;DHT22;17779;50.942;4.026;2023-08-06T02:07:48;15.90;99.90
31133;DHT22;17779;50.942;4.026;2023-08-06T02:10:13;16.00;99.90
31133;DHT22;17779;50.942;4.026;2023-08-06T02:12:39;15.90;99.90
31133;DHT22;17779;50.942;4.026;2023-08-06T02:15:05;15.80;99.90
31133;DHT22;17779;50.942;4.026;2023-08-06T02:17:31;15.70;99.90
31133;DHT22;17779;50.942;4.026;2023-08-06T02:19:56;15.60;99.90
31133;DHT22;17779;50.942;4.026;2023-08-06T02:22:22;15.50;99.90
31133;DHT22;17779;50.942;4.026;2023-08-06T02:24:49;15.50;99.90
31133;DHT22;17779;50.942;4.026;2023-08-06T02:27:14;15.50;99.90
31133;DHT22;17779;50.942;4.026;2023-08-06T02:29:40;15.40;99.90
31133;DHT22;17779;50.942;4.026;2023-08-06T02:32:06;15.40;99.90
31133;DHT22;17779;50.942;4.026;2023-08-06T02:34:32;15.40;99.90
31133;DHT22;17779;50.942;4.026;2023-08-06T02:36:58;15.40;99.90
31133;DHT22;17779;50.942;4.026;2023-08-06T02:39:23;15.40;99.90
31133;DHT22;17779;50.942;4.026;2023-08-06T02:41:49;15.40;99.90
31133;DHT22;17779;50.942;4.026;2023-08-06T02:44:15;15.40;99.90
31133;DHT22;17779;50.942;4.026;2023-08-06T02:46:40;15.40;99.90
31133;DHT22;17779;50.942;4.026;2023-08-06T02:49:06;15.40;99.90
31133;DHT22;17779;50.942;4.026;2023-08-06T02:51:32;15.40;99.90
31133;DHT22;17779;50.942;4.026;2023-08-06T02:53:57;15.40;99.90
31133;DHT22;17779;50.942;4.026;2023-08-06T02:56:23;15.40;99.90
31133;DHT22;17779;50.942;4.026;2023-08-06T02:58:49;15.30;99.90
31133;DHT22;17779;50.942;4.026;2023-08-06T03:01:16;15.30;99.90
31133;DHT22;17779;50.942;4.026;2023-08-06T03:03:42;15.20;99.90
31133;DHT22;17779;50.942;4.026;2023-08-06T03:06:07;15.10;99.90
31133;DHT22;17779;50.942;4.026;2023-08-06T03:08:33;15.10;99.90
31133;DHT22;17779;50.942;4.026;2023-08-06T03:10:59;15.10;99.90
31133;DHT22;17779;50.942;4.026;2023-08-06T03:13:24;15.10;99.90
31133;DHT22;17779;50.942;4.026;2023-08-06T03:15:57;15.10;99.90
31133;DHT22;17779;50.942;4.026;2023-08-06T03:18:22;15.00;99.90
31133;DHT22;17779;50.942;4.026;2023-08-06T03:20:48;15.00;99.90
31133;DHT22;17779;50.942;4.026;2023-08-06T03:23:14;15.00;99.90
31133;DHT22;17779;50.942;4.026;2023-08-06T03:25:40;14.80;99.90
31133;DHT22;17779;50.942;4.026;2023-08-06T03:28:05;14.80;99.90
31133;DHT22;17779;50.942;4.026;2023-08-06T03:30:31;14.70;99.90
31133;DHT22;17779;50.942;4.026;2023-08-06T03:32:57;14.70;99.90
31133;DHT22;17779;50.942;4.026;2023-08-06T03:35:22;14.60;99.90
31133;DHT22;17779;50.942;4.026;2023-08-06T03:37:48;14.60;99.90
31133;DHT22;17779;50.942;4.026;2023-08-06T03:40:15;14.60;99.90
31133;DHT22;17779;50.942;4.026;2023-08-06T03:42:41;14.60;99.90
31133;DHT22;17779;50.942;4.026;2023-08-06T03:45:06;14.60;99.90
31133;DHT22;17779;50.942;4.026;2023-08-06T03:47:32;14.60;99.90
31133;DHT22;17779;50.942;4.026;2023-08-06T03:49:58;14.60;99.90
31133;DHT22;17779;50.942;4.026;2023-08-06T03:52:23;14.70;99.90
31133;DHT22;17779;50.942;4.026;2023-08-06T03:54:49;14.60;99.90
31133;DHT22;17779;50.942;4.026;2023-08-06T03:57:15;14.60;99.90
31133;DHT22;17779;50.942;4.026;2023-08-06T03:59:41;14.60;99.90
31133;DHT22;17779;50.942;4.026;2023-08-06T04:02:06;14.60;99.90
31133;DHT22;17779;50.942;4.026;2023-08-06T04:04:32;14.50;99.90
31133;DHT22;17779;50.942;4.026;2023-08-06T04:06:58;14.50;99.90
31133;DHT22;17779;50.942;4.026;2023-08-06T04:09:23;14.40;99.90
31133;DHT22;17779;50.942;4.026;2023-08-06T04:11:49;14.40;99.90
31133;DHT22;17779;50.942;4.026;2023-08-06T04:14:14;14.30;99.90
31133;DHT22;17779;50.942;4.026;2023-08-06T04:16:40;14.30;99.90
31133;DHT22;17779;50.942;4.026;2023-08-06T04:19:06;14.30;99.90
31133;DHT22;17779;50.942;4.026;2023-08-06T04:21:31;14.30;99.90
31133;DHT22;17779;50.942;4.026;2023-08-06T04:23:57;14.30;99.90
31133;DHT22;17779;50.942;4.026;2023-08-06T04:26:23;14.30;99.90
31133;DHT22;17779;50.942;4.026;2023-08-06T04:28:48;14.30;99.90
31133;DHT22;17779;50.942;4.026;2023-08-06T04:31:14;14.30;99.90
31133;DHT22;17779;50.942;4.026;2023-08-06T04:33:40;14.30;99.90
31133;DHT22;17779;50.942;4.026;2023-08-06T04:36:06;14.40;99.90
31133;DHT22;17779;50.942;4.026;2023-08-06T04:38:31;14.40;99.90
31133;DHT22;17779;50.942;4.026;2023-08-06T04:40:57;14.40;99.90
31133;DHT22;17779;50.942;4.026;2023-08-06T04:43:23;14.40;99.90
31133;DHT22;17779;50.942;4.026;2023-08-06T04:45:50;14.40;99.90
31133;DHT22;17779;50.942;4.026;2023-08-06T04:48:16;14.50;99.90
31133;DHT22;17779;50.942;4.026;2023-08-06T04:50:48;14.50;99.90
31133;DHT22;17779;50.942;4.026;2023-08-06T04:53:14;14.50;99.90
31133;DHT22;17779;50.942;4.026;2023-08-06T04:55:40;14.50;99.90
31133;DHT22;17779;50.942;4.026;2023-08-06T04:58:06;14.50;99.90
31133;DHT22;17779;50.942;4.026;2023-08-06T05:00:32;14.50;99.90
31133;DHT22;17779;50.942;4.026;2023-08-06T05:03:02;14.50;99.90
31133;DHT22;17779;50.942;4.026;2023-08-06T05:05:28;14.50;99.90
31133;DHT22;17779;50.942;4.026;2023-08-06T05:07:54;14.40;99.90
31133;DHT22;17779;50.942;4.026;2023-08-06T05:10:21;14.50;99.90
31133;DHT22;17779;50.942;4.026;2023-08-06T05:12:46;14.50;99.90
31133;DHT22;17779;50.942;4.026;2023-08-06T05:15:12;14.50;99.90
31133;DHT22;17779;50.942;4.026;2023-08-06T05:17:38;14.40;99.90
31133;DHT22;17779;50.942;4.026;2023-08-06T05:20:04;14.50;99.90
31133;DHT22;17779;50.942;4.026;2023-08-06T05:22:30;14.40;99.90
31133;DHT22;17779;50.942;4.026;2023-08-06T05:24:55;14.40;99.90
31133;DHT22;17779;50.942;4.026;2023-08-06T05:27:21;14.40;99.90
31133;DHT22;17779;50.942;4.026;2023-08-06T05:29:47;14.40;99.90
31133;DHT22;17779;50.942;4.026;2023-08-06T05:32:13;14.40;99.90
31133;DHT22;17779;50.942;4.026;2023-08-06T05:34:39;14.40;99.90
31133;DHT22;17779;50.942;4.026;2023-08-06T05:37:05;14.40;99.90
31133;DHT22;17779;50.942;4.026;2023-08-06T05:39:30;14.40;99.90
31133;DHT22;17779;50.942;4.026;2023-08-06T05:41:56;14.40;99.90
31133;DHT22;17779;50.942;4.026;2023-08-06T05:44:23;14.50;99.90
31133;DHT22;17779;50.942;4.026;2023-08-06T05:46:49;14.50;99.90
31133;DHT22;17779;50.942;4.026;2023-08-06T05:49:15;14.50;99.90
31133;DHT22;17779;50.942;4.026;2023-08-06T05:51:41;14.50;99.90
31133;DHT22;17779;50.942;4.026;2023-08-06T05:54:06;14.60;99.90
31133;DHT22;17779;50.942;4.026;2023-08-06T05:56:32;14.60;99.90
31133;DHT22;17779;50.942;4.026;2023-08-06T05:58:58;14.70;99.90
31133;DHT22;17779;50.942;4.026;2023-08-06T06:01:23;14.70;99.90
31133;DHT22;17779;50.942;4.026;2023-08-06T06:03:49;14.60;99.90
31133;DHT22;17779;50.942;4.026;2023-08-06T06:06:15;14.60;99.90
31133;DHT22;17779;50.942;4.026;2023-08-06T06:08:41;14.70;99.90
31133;DHT22;17779;50.942;4.026;2023-08-06T06:11:07;14.70;99.90
31133;DHT22;17779;50.942;4.026;2023-08-06T06:13:33;14.80;99.90
31133;DHT22;17779;50.942;4.026;2023-08-06T06:15:58;14.80;99.90
31133;DHT22;17779;50.942;4.026;2023-08-06T06:18:24;14.80;99.90
31133;DHT22;17779;50.942;4.026;2023-08-06T06:20:50;14.90;99.90
31133;DHT22;17779;50.942;4.026;2023-08-06T06:23:15;15.00;99.90
31133;DHT22;17779;50.942;4.026;2023-08-06T06:25:50;15.00;99.90
31133;DHT22;17779;50.942;4.026;2023-08-06T06:28:17;14.90;99.90
31133;DHT22;17779;50.942;4.026;2023-08-06T06:30:43;14.80;99.90
31133;DHT22;17779;50.942;4.026;2023-08-06T06:33:09;14.70;99.90
31133;DHT22;17779;50.942;4.026;2023-08-06T06:35:35;14.60;99.90
31133;DHT22;17779;50.942;4.026;2023-08-06T06:38:00;14.50;99.90
31133;DHT22;17779;50.942;4.026;2023-08-06T06:40:26;14.50;99.90
31133;DHT22;17779;50.942;4.026;2023-08-06T06:42:52;14.50;99.90
31133;DHT22;17779;50.942;4.026;2023-08-06T06:45:17;14.60;99.90
31133;DHT22;17779;50.942;4.026;2023-08-06T06:47:43;14.70;99.90
31133;DHT22;17779;50.942;4.026;2023-08-06T06:50:09;14.70;99.90
31133;DHT22;17779;50.942;4.026;2023-08-06T06:52:35;14.90;99.90
31133;DHT22;17779;50.942;4.026;2023-08-06T06:55:00;14.80;99.90
31133;DHT22;17779;50.942;4.026;2023-08-06T06:57:26;14.90;99.90
31133;DHT22;17779;50.942;4.026;2023-08-06T06:59:52;14.80;99.90
31133;DHT22;17779;50.942;4.026;2023-08-06T07:02:17;14.90;99.90
31133;DHT22;17779;50.942;4.026;2023-08-06T07:04:43;14.90;99.90
31133;DHT22;17779;50.942;4.026;2023-08-06T07:07:09;14.80;99.90
31133;DHT22;17779;50.942;4.026;2023-08-06T07:09:35;14.80;99.90
31133;DHT22;17779;50.942;4.026;2023-08-06T07:12:01;14.90;99.90
31133;DHT22;17779;50.942;4.026;2023-08-06T07:14:28;14.90;99.90
31133;DHT22;17779;50.942;4.026;2023-08-06T07:16:54;15.00;99.90
31133;DHT22;17779;50.942;4.026;2023-08-06T07:19:19;15.10;99.90
31133;DHT22;17779;50.942;4.026;2023-08-06T07:21:45;15.20;99.90
31133;DHT22;17779;50.942;4.026;2023-08-06T07:24:11;15.20;99.90
31133;DHT22;17779;50.942;4.026;2023-08-06T07:26:37;15.20;99.90
31133;DHT22;17779;50.942;4.026;2023-08-06T07:29:03;15.30;99.90
31133;DHT22;17779;50.942;4.026;2023-08-06T07:31:28;15.40;99.90
31133;DHT22;17779;50.942;4.026;2023-08-06T07:33:54;15.70;99.90
31133;DHT22;17779;50.942;4.026;2023-08-06T07:36:20;15.70;99.90
31133;DHT22;17779;50.942;4.026;2023-08-06T07:38:45;15.80;99.90
31133;DHT22;17779;50.942;4.026;2023-08-06T07:41:11;15.70;99.90
31133;DHT22;17779;50.942;4.026;2023-08-06T07:43:37;15.80;99.90
31133;DHT22;17779;50.942;4.026;2023-08-06T07:46:02;16.10;99.90
31133;DHT22;17779;50.942;4.026;2023-08-06T07:48:28;16.10;99.90
31133;DHT22;17779;50.942;4.026;2023-08-06T07:50:54;16.10;99.90
31133;DHT22;17779;50.942;4.026;2023-08-06T07:53:21;16.20;99.90
31133;DHT22;17779;50.942;4.026;2023-08-06T07:55:53;16.30;99.90
31133;DHT22;17779;50.942;4.026;2023-08-06T07:58:19;16.20;99.90
31133;DHT22;17779;50.942;4.026;2023-08-06T08:00:45;15.90;99.90
31133;DHT22;17779;50.942;4.026;2023-08-06T08:03:14;15.80;99.90
31133;DHT22;17779;50.942;4.026;2023-08-06T08:05:40;15.70;99.90
31133;DHT22;17779;50.942;4.026;2023-08-06T08:08:06;15.70;99.90
31133;DHT22;17779;50.942;4.026;2023-08-06T08:10:32;15.60;99.90
31133;DHT22;17779;50.942;4.026;2023-08-06T08:12:57;15.60;99.90
31133;DHT22;17779;50.942;4.026;2023-08-06T08:15:24;15.60;99.90
31133;DHT22;17779;50.942;4.026;2023-08-06T08:17:51;15.60;99.90
31133;DHT22;17779;50.942;4.026;2023-08-06T08:20:17;15.90;99.90
31133;DHT22;17779;50.942;4.026;2023-08-06T08:22:43;16.10;99.90
31133;DHT22;17779;50.942;4.026;2023-08-06T08:25:09;16.40;99.90
31133;DHT22;17779;50.942;4.026;2023-08-06T08:27:34;16.60;99.90
31133;DHT22;17779;50.942;4.026;2023-08-06T08:30:00;16.60;99.90
31133;DHT22;17779;50.942;4.026;2023-08-06T08:32:26;16.20;99.90
31133;DHT22;17779;50.942;4.026;2023-08-06T08:34:51;16.10;99.90
31133;DHT22;17779;50.942;4.026;2023-08-06T08:37:17;16.10;99.90
31133;DHT22;17779;50.942;4.026;2023-08-06T08:39:43;16.10;99.90
31133;DHT22;17779;50.942;4.026;2023-08-06T08:42:08;16.40;99.90
31133;DHT22;17779;50.942;4.026;2023-08-06T08:44:35;16.10;99.90
31133;DHT22;17779;50.942;4.026;2023-08-06T08:47:05;16.00;99.90
31133;DHT22;17779;50.942;4.026;2023-08-06T08:49:31;15.90;99.90
31133;DHT22;17779;50.942;4.026;2023-08-06T08:51:57;15.90;99.90
31133;DHT22;17779;50.942;4.026;2023-08-06T08:54:25;15.80;99.90
31133;DHT22;17779;50.942;4.026;2023-08-06T08:56:51;15.80;99.90
31133;DHT22;17779;50.942;4.026;2023-08-06T08:59:17;15.90;99.90
31133;DHT22;17779;50.942;4.026;2023-08-06T09:01:43;15.90;99.90
31133;DHT22;17779;50.942;4.026;2023-08-06T09:04:11;15.90;99.90
31133;DHT22;17779;50.942;4.026;2023-08-06T09:06:37;15.80;99.90
31133;DHT22;17779;50.942;4.026;2023-08-06T09:09:08;15.80;99.90
31133;DHT22;17779;50.942;4.026;2023-08-06T09:11:35;15.70;99.90
31133;DHT22;17779;50.942;4.026;2023-08-06T09:14:06;15.80;99.90
31133;DHT22;17779;50.942;4.026;2023-08-06T09:16:34;15.70;99.90
31133;DHT22;17779;50.942;4.026;2023-08-06T09:19:12;15.70;99.90
31133;DHT22;17779;50.942;4.026;2023-08-06T09:21:39;15.60;99.90
31133;DHT22;17779;50.942;4.026;2023-08-06T09:24:08;15.60;99.90
31133;DHT22;17779;50.942;4.026;2023-08-06T09:26:35;15.70;99.90
31133;DHT22;17779;50.942;4.026;2023-08-06T09:29:01;15.70;99.90
31133;DHT22;17779;50.942;4.026;2023-08-06T09:31:34;15.60;99.90
31133;DHT22;17779;50.942;4.026;2023-08-06T09:34:06;15.50;99.90
31133;DHT22;17779;50.942;4.026;2023-08-06T09:36:38;15.50;99.90
31133;DHT22;17779;50.942;4.026;2023-08-06T09:39:12;15.80;99.90
31133;DHT22;17779;50.942;4.026;2023-08-06T09:41:38;16.10;99.90
31133;DHT22;17779;50.942;4.026;2023-08-06T09:44:04;16.20;99.90
31133;DHT22;17779;50.942;4.026;2023-08-06T09:46:31;16.40;99.90
31133;DHT22;17779;50.942;4.026;2023-08-06T09:48:57;16.60;99.90
31133;DHT22;17779;50.942;4.026;2023-08-06T09:51:23;17.00;99.90
31133;DHT22;17779;50.942;4.026;2023-08-06T09:53:49;17.30;99.90
31133;DHT22;17779;50.942;4.026;2023-08-06T09:56:17;17.10;99.90
31133;DHT22;17779;50.942;4.026;2023-08-06T09:58:42;17.60;99.90
31133;DHT22;17779;50.942;4.026;2023-08-06T10:01:09;18.90;99.90
31133;DHT22;17779;50.942;4.026;2023-08-06T10:03:36;19.40;99.90
31133;DHT22;17779;50.942;4.026;2023-08-06T10:06:02;19.20;99.90
31133;DHT22;17779;50.942;4.026;2023-08-06T10:08:32;18.30;99.90
31133;DHT22;17779;50.942;4.026;2023-08-06T10:10:58;18.20;99.90
31133;DHT22;17779;50.942;4.026;2023-08-06T10:13:24;17.40;99.90
31133;DHT22;17779;50.942;4.026;2023-08-06T10:15:49;16.90;99.90
31133;DHT22;17779;50.942;4.026;2023-08-06T10:18:15;16.50;99.90
31133;DHT22;17779;50.942;4.026;2023-08-06T10:20:46;16.30;99.90
31133;DHT22;17779;50.942;4.026;2023-08-06T10:23:12;16.30;99.90
31133;DHT22;17779;50.942;4.026;2023-08-06T10:25:43;16.30;99.90
31133;DHT22;17779;50.942;4.026;2023-08-06T10:28:09;16.20;99.90
31133;DHT22;17779;50.942;4.026;2023-08-06T10:30:41;16.40;99.90
31133;DHT22;17779;50.942;4.026;2023-08-06T10:33:06;16.50;99.90
31133;DHT22;17779;50.942;4.026;2023-08-06T10:38:27;16.70;99.90
31133;DHT22;17779;50.942;4.026;2023-08-06T10:43:30;16.80;99.90
31133;DHT22;17779;50.942;4.026;2023-08-06T10:45:58;16.80;99.90
31133;DHT22;17779;50.942;4.026;2023-08-06T10:48:36;16.70;99.90
31133;DHT22;17779;50.942;4.026;2023-08-06T10:51:02;16.80;99.90
31133;DHT22;17779;50.942;4.026;2023-08-06T10:53:28;16.80;99.90
31133;DHT22;17779;50.942;4.026;2023-08-06T10:55:54;16.70;99.90
31133;DHT22;17779;50.942;4.026;2023-08-06T10:58:19;16.80;99.90
31133;DHT22;17779;50.942;4.026;2023-08-06T11:00:45;17.00;99.90
31133;DHT22;17779;50.942;4.026;2023-08-06T11:03:11;16.90;99.90
31133;DHT22;17779;50.942;4.026;2023-08-06T11:05:36;16.80;99.90
31133;DHT22;17779;50.942;4.026;2023-08-06T11:08:02;16.70;99.90
31133;DHT22;17779;50.942;4.026;2023-08-06T11:10:28;16.80;99.90
31133;DHT22;17779;50.942;4.026;2023-08-06T11:12:53;16.80;99.90
31133;DHT22;17779;50.942;4.026;2023-08-06T11:15:22;16.60;99.90
31133;DHT22;17779;50.942;4.026;2023-08-06T11:17:48;16.40;99.90
31133;DHT22;17779;50.942;4.026;2023-08-06T11:20:13;16.20;99.90
31133;DHT22;17779;50.942;4.026;2023-08-06T11:22:39;16.60;99.90
31133;DHT22;17779;50.942;4.026;2023-08-06T11:25:05;16.30;99.90
31133;DHT22;17779;50.942;4.026;2023-08-06T11:27:31;15.90;99.90
31133;DHT22;17779;50.942;4.026;2023-08-06T11:29:57;15.50;99.90
31133;DHT22;17779;50.942;4.026;2023-08-06T11:32:23;15.40;99.90
31133;DHT22;17779;50.942;4.026;2023-08-06T11:34:49;15.40;99.90
31133;DHT22;17779;50.942;4.026;2023-08-06T11:37:14;15.40;99.90
31133;DHT22;17779;50.942;4.026;2023-08-06T11:39:44;15.60;99.90
31133;DHT22;17779;50.942;4.026;2023-08-06T11:42:11;15.70;99.90
31133;DHT22;17779;50.942;4.026;2023-08-06T11:44:37;16.00;99.90
31133;DHT22;17779;50.942;4.026;2023-08-06T11:47:03;16.30;99.90
31133;DHT22;17779;50.942;4.026;2023-08-06T11:49:49;16.30;99.90
31133;DHT22;17779;50.942;4.026;2023-08-06T11:52:16;16.50;99.90
31133;DHT22;17779;50.942;4.026;2023-08-06T11:54:44;16.30;99.90
31133;DHT22;17779;50.942;4.026;2023-08-06T11:57:10;16.40;99.90
31133;DHT22;17779;50.942;4.026;2023-08-06T11:59:37;16.50;99.90
31133;DHT22;17779;50.942;4.026;2023-08-06T12:02:03;16.40;99.90
31133;DHT22;17779;50.942;4.026;2023-08-06T12:04:31;16.40;99.90
31133;DHT22;17779;50.942;4.026;2023-08-06T12:07:04;16.30;99.90
31133;DHT22;17779;50.942;4.026;2023-08-06T12:09:29;16.60;99.90
31133;DHT22;17779;50.942;4.026;2023-08-06T12:11:55;17.00;99.90
31133;DHT22;17779;50.942;4.026;2023-08-06T12:14:21;17.20;99.90
31133;DHT22;17779;50.942;4.026;2023-08-06T12:16:46;16.90;99.90
31133;DHT22;17779;50.942;4.026;2023-08-06T12:19:12;16.70;99.90
31133;DHT22;17779;50.942;4.026;2023-08-06T12:21:38;16.50;99.90
31133;DHT22;17779;50.942;4.026;2023-08-06T12:24:04;16.20;99.90
31133;DHT22;17779;50.942;4.026;2023-08-06T12:26:29;15.90;99.90
31133;DHT22;17779;50.942;4.026;2023-08-06T12:28:55;15.90;99.90
31133;DHT22;17779;50.942;4.026;2023-08-06T12:31:22;16.10;99.90
31133;DHT22;17779;50.942;4.026;2023-08-06T12:33:48;16.40;99.90
31133;DHT22;17779;50.942;4.026;2023-08-06T12:36:14;16.60;99.90
31133;DHT22;17779;50.942;4.026;2023-08-06T12:38:39;16.80;99.90
31133;DHT22;17779;50.942;4.026;2023-08-06T12:41:05;16.90;99.90
31133;DHT22;17779;50.942;4.026;2023-08-06T12:43:30;16.80;99.90
31133;DHT22;17779;50.942;4.026;2023-08-06T12:45:56;16.60;99.90
31133;DHT22;17779;50.942;4.026;2023-08-06T12:48:22;16.90;99.90
31133;DHT22;17779;50.942;4.026;2023-08-06T12:50:47;17.00;99.90
31133;DHT22;17779;50.942;4.026;2023-08-06T12:53:14;17.00;99.90
31133;DHT22;17779;50.942;4.026;2023-08-06T12:55:41;16.90;99.90
31133;DHT22;17779;50.942;4.026;2023-08-06T12:58:07;16.70;99.90
31133;DHT22;17779;50.942;4.026;2023-08-06T13:00:32;16.60;99.90
31133;DHT22;17779;50.942;4.026;2023-08-06T13:02:59;16.60;99.90
31133;DHT22;17779;50.942;4.026;2023-08-06T13:05:25;16.70;99.90
31133;DHT22;17779;50.942;4.026;2023-08-06T13:07:50;16.90;99.90
31133;DHT22;17779;50.942;4.026;2023-08-06T13:10:16;17.00;99.90
31133;DHT22;17779;50.942;4.026;2023-08-06T13:12:43;16.70;99.90
31133;DHT22;17779;50.942;4.026;2023-08-06T13:15:08;16.40;99.90
31133;DHT22;17779;50.942;4.026;2023-08-06T13:17:35;16.20;99.90
31133;DHT22;17779;50.942;4.026;2023-08-06T13:20:00;16.10;99.90
31133;DHT22;17779;50.942;4.026;2023-08-06T13:22:26;16.10;99.90
31133;DHT22;17779;50.942;4.026;2023-08-06T13:24:52;16.40;99.90
31133;DHT22;17779;50.942;4.026;2023-08-06T13:27:17;16.50;99.90
31133;DHT22;17779;50.942;4.026;2023-08-06T13:29:43;16.60;99.90
31133;DHT22;17779;50.942;4.026;2023-08-06T13:32:09;16.50;99.90
31133;DHT22;17779;50.942;4.026;2023-08-06T13:34:35;16.40;99.90
31133;DHT22;17779;50.942;4.026;2023-08-06T13:37:00;16.30;99.90
31133;DHT22;17779;50.942;4.026;2023-08-06T13:39:26;16.20;99.90
31133;DHT22;17779;50.942;4.026;2023-08-06T13:41:52;16.10;99.90
31133;DHT22;17779;50.942;4.026;2023-08-06T13:44:17;16.20;99.90
31133;DHT22;17779;50.942;4.026;2023-08-06T13:46:43;16.20;99.90
31133;DHT22;17779;50.942;4.026;2023-08-06T13:49:09;16.20;99.90
31133;DHT22;17779;50.942;4.026;2023-08-06T13:51:34;16.20;99.90
31133;DHT22;17779;50.942;4.026;2023-08-06T13:54:01;16.30;99.90
31133;DHT22;17779;50.942;4.026;2023-08-06T13:56:27;16.20;99.90
31133;DHT22;17779;50.942;4.026;2023-08-06T13:58:52;16.10;99.90
31133;DHT22;17779;50.942;4.026;2023-08-06T14:01:18;16.10;99.90
31133;DHT22;17779;50.942;4.026;2023-08-06T14:03:47;16.10;99.90
31133;DHT22;17779;50.942;4.026;2023-08-06T14:06:13;16.10;99.90
31133;DHT22;17779;50.942;4.026;2023-08-06T14:08:39;16.00;99.90
31133;DHT22;17779;50.942;4.026;2023-08-06T14:11:05;16.00;99.90
31133;DHT22;17779;50.942;4.026;2023-08-06T14:13:31;16.00;99.90
31133;DHT22;17779;50.942;4.026;2023-08-06T14:15:57;16.00;99.90
31133;DHT22;17779;50.942;4.026;2023-08-06T14:18:22;16.10;99.90
31133;DHT22;17779;50.942;4.026;2023-08-06T14:20:48;16.30;99.90
31133;DHT22;17779;50.942;4.026;2023-08-06T14:23:14;16.50;99.90
31133;DHT22;17779;50.942;4.026;2023-08-06T14:25:40;16.70;99.90
31133;DHT22;17779;50.942;4.026;2023-08-06T14:28:06;16.60;99.90
31133;DHT22;17779;50.942;4.026;2023-08-06T14:30:32;16.60;99.90
31133;DHT22;17779;50.942;4.026;2023-08-06T14:32:58;16.80;99.90
31133;DHT22;17779;50.942;4.026;2023-08-06T14:35:26;17.00;99.90
31133;DHT22;17779;50.942;4.026;2023-08-06T14:37:51;17.10;99.90
31133;DHT22;17779;50.942;4.026;2023-08-06T14:40:18;17.30;99.90
31133;DHT22;17779;50.942;4.026;2023-08-06T14:42:44;17.60;99.90
31133;DHT22;17779;50.942;4.026;2023-08-06T14:45:09;17.70;99.90
31133;DHT22;17779;50.942;4.026;2023-08-06T14:47:35;17.80;99.90
31133;DHT22;17779;50.942;4.026;2023-08-06T14:50:01;17.70;99.90
31133;DHT22;17779;50.942;4.026;2023-08-06T14:52:26;17.70;99.90
31133;DHT22;17779;50.942;4.026;2023-08-06T14:54:52;17.60;99.90
31133;DHT22;17779;50.942;4.026;2023-08-06T14:57:20;17.80;99.90
31133;DHT22;17779;50.942;4.026;2023-08-06T14:59:46;17.80;99.90
31133;DHT22;17779;50.942;4.026;2023-08-06T15:02:12;17.70;99.90
31133;DHT22;17779;50.942;4.026;2023-08-06T15:04:38;17.60;99.90
31133;DHT22;17779;50.942;4.026;2023-08-06T15:07:04;17.90;99.90
31133;DHT22;17779;50.942;4.026;2023-08-06T15:09:29;18.00;99.90
31133;DHT22;17779;50.942;4.026;2023-08-06T15:11:55;18.00;99.90
31133;DHT22;17779;50.942;4.026;2023-08-06T15:14:21;17.90;99.90
31133;DHT22;17779;50.942;4.026;2023-08-06T15:16:47;17.70;99.90
31133;DHT22;17779;50.942;4.026;2023-08-06T15:19:12;17.60;99.90
31133;DHT22;17779;50.942;4.026;2023-08-06T15:21:38;17.50;99.90
31133;DHT22;17779;50.942;4.026;2023-08-06T15:24:04;17.40;99.90
31133;DHT22;17779;50.942;4.026;2023-08-06T15:26:29;17.30;99.90
31133;DHT22;17779;50.942;4.026;2023-08-06T15:28:55;17.20;99.90
31133;DHT22;17779;50.942;4.026;2023-08-06T15:31:22;17.20;99.90
31133;DHT22;17779;50.942;4.026;2023-08-06T15:33:48;17.20;99.90